sensor_id;sensor_type;location;lat;lon;timestamp;temperature;humidity
75685;HTU21D;64298;46.050;38.164;2023-03-31T00:01:36;3.75;84.14
75685;HTU21D;64298;46.050;38.164;2023-03-31T00:04:09;3.75;84.16
75685;HTU21D;64298;46.050;38.164;2023-03-31T00:06:39;3.72;84.07
75685;HTU21D;64298;46.050;38.164;2023-03-31T00:09:13;3.71;84.26
75685;HTU21D;64298;46.050;38.164;2023-03-31T00:11:44;3.70;84.53
75685;HTU21D;64298;46.050;38.164;2023-03-31T00:14:10;3.70;84.58
75685;HTU21D;64298;46.050;38.164;2023-03-31T00:16:37;3.71;84.55
75685;HTU21D;64298;46.050;38.164;2023-03-31T00:19:04;3.73;84.64
75685;HTU21D;64298;46.050;38.164;2023-03-31T00:21:49;3.73;84.55
75685;HTU21D;64298;46.050;38.164;2023-03-31T00:24:16;3.73;84.52
75685;HTU21D;64298;46.050;38.164;2023-03-31T00:26:42;3.73;84.55
75685;HTU21D;64298;46.050;38.164;2023-03-31T00:29:11;3.75;84.53
75685;HTU21D;64298;46.050;38.164;2023-03-31T00:31:37;3.76;84.50
75685;HTU21D;64298;46.050;38.164;2023-03-31T00:34:04;3.77;84.54
75685;HTU21D;64298;46.050;38.164;2023-03-31T00:36:32;3.78;84.49
75685;HTU21D;64298;46.050;38.164;2023-03-31T00:39:05;3.78;84.51
75685;HTU21D;64298;46.050;38.164;2023-03-31T00:41:35;3.80;84.39
75685;HTU21D;64298;46.050;38.164;2023-03-31T00:44:07;3.79;84.35
75685;HTU21D;64298;46.050;38.164;2023-03-31T00:47:11;3.80;84.24
75685;HTU21D;64298;46.050;38.164;2023-03-31T00:49:44;3.79;84.19
75685;HTU21D;64298;46.050;38.164;2023-03-31T00:54:44;3.77;84.55
75685;HTU21D;64298;46.050;38.164;2023-03-31T00:57:11;3.76;84.55
75685;HTU21D;64298;46.050;38.164;2023-03-31T00:59:45;3.76;84.68
75685;HTU21D;64298;46.050;38.164;2023-03-31T01:02:13;3.74;84.81
75685;HTU21D;64298;46.050;38.164;2023-03-31T01:04:47;3.73;84.90
75685;HTU21D;64298;46.050;38.164;2023-03-31T01:09:47;3.72;85.00
75685;HTU21D;64298;46.050;38.164;2023-03-31T01:12:16;3.73;84.96
75685;HTU21D;64298;46.050;38.164;2023-03-31T01:14:43;3.74;84.97
75685;HTU21D;64298;46.050;38.164;2023-03-31T01:17:09;3.73;84.96
75685;HTU21D;64298;46.050;38.164;2023-03-31T01:19:46;3.74;84.95
75685;HTU21D;64298;46.050;38.164;2023-03-31T01:43:32;3.89;84.26
75685;HTU21D;64298;46.050;38.164;2023-03-31T01:54:34;3.99;83.94
75685;HTU21D;64298;46.050;38.164;2023-03-31T01:57:50;4.01;83.88
75685;HTU21D;64298;46.050;38.164;2023-03-31T02:00:10;4.04;83.83
75685;HTU21D;64298;46.050;38.164;2023-03-31T02:02:53;4.06;83.76
75685;HTU21D;64298;46.050;38.164;2023-03-31T02:05:31;4.09;83.68
75685;HTU21D;64298;46.050;38.164;2023-03-31T02:08:10;4.13;83.52
75685;HTU21D;64298;46.050;38.164;2023-03-31T02:10:40;4.17;83.33
75685;HTU21D;64298;46.050;38.164;2023-03-31T02:13:08;4.22;83.21
75685;HTU21D;64298;46.050;38.164;2023-03-31T02:15:38;4.23;83.07
75685;HTU21D;64298;46.050;38.164;2023-03-31T02:18:08;4.27;83.07
75685;HTU21D;64298;46.050;38.164;2023-03-31T02:20:41;4.30;82.94
75685;HTU21D;64298;46.050;38.164;2023-03-31T02:23:09;4.34;82.88
75685;HTU21D;64298;46.050;38.164;2023-03-31T02:25:44;4.38;82.74
75685;HTU21D;64298;46.050;38.164;2023-03-31T02:28:17;4.43;82.31
75685;HTU21D;64298;46.050;38.164;2023-03-31T02:34:08;4.54;81.28
75685;HTU21D;64298;46.050;38.164;2023-03-31T02:36:34;4.58;80.98
75685;HTU21D;64298;46.050;38.164;2023-03-31T02:39:07;4.64;80.79
75685;HTU21D;64298;46.050;38.164;2023-03-31T02:41:34;4.66;79.89
75685;HTU21D;64298;46.050;38.164;2023-03-31T02:44:01;4.72;79.60
75685;HTU21D;64298;46.050;38.164;2023-03-31T02:46:27;4.77;79.85
75685;HTU21D;64298;46.050;38.164;2023-03-31T02:48:59;4.81;79.82
75685;HTU21D;64298;46.050;38.164;2023-03-31T03:02:35;4.89;79.53
75685;HTU21D;64298;46.050;38.164;2023-03-31T03:05:17;4.89;79.32
75685;HTU21D;64298;46.050;38.164;2023-03-31T03:08:43;4.92;79.18
75685;HTU21D;64298;46.050;38.164;2023-03-31T03:11:24;4.92;79.13
75685;HTU21D;64298;46.050;38.164;2023-03-31T03:16:47;4.95;78.81
75685;HTU21D;64298;46.050;38.164;2023-03-31T03:19:21;4.97;78.80
75685;HTU21D;64298;46.050;38.164;2023-03-31T03:21:48;5.02;78.89
75685;HTU21D;64298;46.050;38.164;2023-03-31T03:24:15;5.02;79.02
75685;HTU21D;64298;46.050;38.164;2023-03-31T03:26:43;5.05;78.94
75685;HTU21D;64298;46.050;38.164;2023-03-31T03:29:10;5.07;78.99
75685;HTU21D;64298;46.050;38.164;2023-03-31T03:31:42;5.09;79.19
75685;HTU21D;64298;46.050;38.164;2023-03-31T03:34:08;5.11;79.40
75685;HTU21D;64298;46.050;38.164;2023-03-31T03:36:36;5.15;79.50
75685;HTU21D;64298;46.050;38.164;2023-03-31T03:39:03;5.17;79.81
75685;HTU21D;64298;46.050;38.164;2023-03-31T03:41:30;5.18;79.78
75685;HTU21D;64298;46.050;38.164;2023-03-31T03:43:58;5.21;79.71
75685;HTU21D;64298;46.050;38.164;2023-03-31T03:46:25;5.23;79.54
75685;HTU21D;64298;46.050;38.164;2023-03-31T03:48:51;5.25;79.21
75685;HTU21D;64298;46.050;38.164;2023-03-31T03:51:17;5.28;79.37
75685;HTU21D;64298;46.050;38.164;2023-03-31T03:53:42;5.31;79.32
75685;HTU21D;64298;46.050;38.164;2023-03-31T03:56:08;5.33;79.08
75685;HTU21D;64298;46.050;38.164;2023-03-31T03:58:34;5.35;78.85
75685;HTU21D;64298;46.050;38.164;2023-03-31T04:01:00;5.38;78.84
75685;HTU21D;64298;46.050;38.164;2023-03-31T04:03:26;5.38;78.48
75685;HTU21D;64298;46.050;38.164;2023-03-31T04:06:10;5.43;78.62
75685;HTU21D;64298;46.050;38.164;2023-03-31T04:08:36;5.43;78.72
75685;HTU21D;64298;46.050;38.164;2023-03-31T04:11:02;5.45;78.54
75685;HTU21D;64298;46.050;38.164;2023-03-31T04:13:28;5.47;78.56
75685;HTU21D;64298;46.050;38.164;2023-03-31T04:15:54;5.48;78.85
75685;HTU21D;64298;46.050;38.164;2023-03-31T04:18:20;5.49;78.96
75685;HTU21D;64298;46.050;38.164;2023-03-31T04:20:52;5.51;79.19
75685;HTU21D;64298;46.050;38.164;2023-03-31T04:23:35;5.53;79.22
75685;HTU21D;64298;46.050;38.164;2023-03-31T04:26:12;5.53;79.12
75685;HTU21D;64298;46.050;38.164;2023-03-31T04:28:38;5.54;78.90
75685;HTU21D;64298;46.050;38.164;2023-03-31T04:31:08;5.56;79.07
75685;HTU21D;64298;46.050;38.164;2023-03-31T04:33:35;5.59;79.13
75685;HTU21D;64298;46.050;38.164;2023-03-31T04:36:04;5.61;79.18
75685;HTU21D;64298;46.050;38.164;2023-03-31T04:38:48;5.61;79.07
75685;HTU21D;64298;46.050;38.164;2023-03-31T04:41:20;5.63;79.19
75685;HTU21D;64298;46.050;38.164;2023-03-31T04:43:46;5.64;78.94
75685;HTU21D;64298;46.050;38.164;2023-03-31T04:46:13;5.66;78.89
75685;HTU21D;64298;46.050;38.164;2023-03-31T04:48:39;5.68;78.95
75685;HTU21D;64298;46.050;38.164;2023-03-31T04:51:05;5.69;78.89
75685;HTU21D;64298;46.050;38.164;2023-03-31T04:53:31;5.74;78.95
75685;HTU21D;64298;46.050;38.164;2023-03-31T04:55:57;5.75;78.85
75685;HTU21D;64298;46.050;38.164;2023-03-31T04:58:23;5.80;78.53
75685;HTU21D;64298;46.050;38.164;2023-03-31T05:00:50;5.81;78.45
75685;HTU21D;64298;46.050;38.164;2023-03-31T05:03:17;5.84;78.46
75685;HTU21D;64298;46.050;38.164;2023-03-31T05:05:43;5.84;78.05
75685;HTU21D;64298;46.050;38.164;2023-03-31T05:08:09;5.85;77.81
75685;HTU21D;64298;46.050;38.164;2023-03-31T05:10:35;5.93;77.34
75685;HTU21D;64298;46.050;38.164;2023-03-31T05:13:01;6.00;77.01
75685;HTU21D;64298;46.050;38.164;2023-03-31T05:15:27;6.08;76.87
75685;HTU21D;64298;46.050;38.164;2023-03-31T05:17:53;6.16;76.92
75685;HTU21D;64298;46.050;38.164;2023-03-31T05:20:19;6.25;76.12
75685;HTU21D;64298;46.050;38.164;2023-03-31T05:22:46;6.27;75.55
75685;HTU21D;64298;46.050;38.164;2023-03-31T05:25:13;6.29;74.98
75685;HTU21D;64298;46.050;38.164;2023-03-31T05:27:46;6.30;74.83
75685;HTU21D;64298;46.050;38.164;2023-03-31T05:30:13;6.33;75.07
75685;HTU21D;64298;46.050;38.164;2023-03-31T05:32:40;6.42;74.58
75685;HTU21D;64298;46.050;38.164;2023-03-31T05:35:06;6.50;74.59
75685;HTU21D;64298;46.050;38.164;2023-03-31T05:37:32;6.59;74.28
75685;HTU21D;64298;46.050;38.164;2023-03-31T05:39:58;6.67;73.12
75685;HTU21D;64298;46.050;38.164;2023-03-31T05:42:24;6.74;73.77
75685;HTU21D;64298;46.050;38.164;2023-03-31T05:44:50;6.78;73.51
75685;HTU21D;64298;46.050;38.164;2023-03-31T05:47:16;6.83;73.45
75685;HTU21D;64298;46.050;38.164;2023-03-31T05:49:43;6.91;72.86
75685;HTU21D;64298;46.050;38.164;2023-03-31T05:52:09;6.98;72.10
75685;HTU21D;64298;46.050;38.164;2023-03-31T05:54:35;7.02;72.38
75685;HTU21D;64298;46.050;38.164;2023-03-31T05:57:02;7.07;72.81
75685;HTU21D;64298;46.050;38.164;2023-03-31T05:59:28;7.08;73.11
75685;HTU21D;64298;46.050;38.164;2023-03-31T06:01:53;7.08;73.23
75685;HTU21D;64298;46.050;38.164;2023-03-31T06:04:19;7.00;73.18
75685;HTU21D;64298;46.050;38.164;2023-03-31T06:06:45;6.93;73.74
75685;HTU21D;64298;46.050;38.164;2023-03-31T06:09:15;6.88;73.97
75685;HTU21D;64298;46.050;38.164;2023-03-31T06:11:41;6.82;74.21
75685;HTU21D;64298;46.050;38.164;2023-03-31T06:14:07;6.73;74.54
75685;HTU21D;64298;46.050;38.164;2023-03-31T06:16:33;6.80;75.22
75685;HTU21D;64298;46.050;38.164;2023-03-31T06:18:59;6.93;74.69
75685;HTU21D;64298;46.050;38.164;2023-03-31T06:21:44;7.14;73.96
75685;HTU21D;64298;46.050;38.164;2023-03-31T06:24:09;7.24;73.98
75685;HTU21D;64298;46.050;38.164;2023-03-31T06:26:35;7.39;73.97
75685;HTU21D;64298;46.050;38.164;2023-03-31T06:29:02;7.60;73.35
75685;HTU21D;64298;46.050;38.164;2023-03-31T06:31:27;7.67;72.04
75685;HTU21D;64298;46.050;38.164;2023-03-31T06:33:53;7.63;72.47
75685;HTU21D;64298;46.050;38.164;2023-03-31T06:36:21;7.75;72.96
75685;HTU21D;64298;46.050;38.164;2023-03-31T06:38:48;7.90;72.74
75685;HTU21D;64298;46.050;38.164;2023-03-31T06:41:16;7.84;71.20
75685;HTU21D;64298;46.050;38.164;2023-03-31T06:43:43;7.74;71.31
75685;HTU21D;64298;46.050;38.164;2023-03-31T06:46:09;7.62;70.99
75685;HTU21D;64298;46.050;38.164;2023-03-31T06:48:36;7.49;70.65
75685;HTU21D;64298;46.050;38.164;2023-03-31T06:51:03;7.55;70.81
75685;HTU21D;64298;46.050;38.164;2023-03-31T06:53:30;7.67;70.24
75685;HTU21D;64298;46.050;38.164;2023-03-31T06:55:56;7.81;71.26
75685;HTU21D;64298;46.050;38.164;2023-03-31T06:58:23;7.99;70.85
75685;HTU21D;64298;46.050;38.164;2023-03-31T07:00:49;8.13;68.86
75685;HTU21D;64298;46.050;38.164;2023-03-31T07:03:15;8.24;68.76
75685;HTU21D;64298;46.050;38.164;2023-03-31T07:06:05;8.20;68.91
75685;HTU21D;64298;46.050;38.164;2023-03-31T07:08:31;8.18;69.81
75685;HTU21D;64298;46.050;38.164;2023-03-31T07:10:59;8.29;69.46
75685;HTU21D;64298;46.050;38.164;2023-03-31T07:13:26;8.47;69.04
75685;HTU21D;64298;46.050;38.164;2023-03-31T07:15:52;8.56;67.82
75685;HTU21D;64298;46.050;38.164;2023-03-31T07:18:19;8.52;66.77
75685;HTU21D;64298;46.050;38.164;2023-03-31T07:20:47;8.59;67.11
75685;HTU21D;64298;46.050;38.164;2023-03-31T07:23:15;8.60;66.06
75685;HTU21D;64298;46.050;38.164;2023-03-31T07:25:42;8.52;64.72
75685;HTU21D;64298;46.050;38.164;2023-03-31T07:28:08;8.50;65.28
75685;HTU21D;64298;46.050;38.164;2023-03-31T07:30:33;8.64;65.32
75685;HTU21D;64298;46.050;38.164;2023-03-31T07:33:00;8.90;65.43
75685;HTU21D;64298;46.050;38.164;2023-03-31T07:35:26;9.10;66.12
75685;HTU21D;64298;46.050;38.164;2023-03-31T07:37:52;9.31;66.80
75685;HTU21D;64298;46.050;38.164;2023-03-31T07:40:21;9.57;66.47
75685;HTU21D;64298;46.050;38.164;2023-03-31T07:43:06;9.80;64.25
75685;HTU21D;64298;46.050;38.164;2023-03-31T07:45:32;9.74;63.53
75685;HTU21D;64298;46.050;38.164;2023-03-31T07:47:59;9.81;62.60
75685;HTU21D;64298;46.050;38.164;2023-03-31T07:50:25;9.64;60.65
75685;HTU21D;64298;46.050;38.164;2023-03-31T07:52:53;9.40;60.35
75685;HTU21D;64298;46.050;38.164;2023-03-31T07:55:19;9.26;61.28
75685;HTU21D;64298;46.050;38.164;2023-03-31T07:57:45;9.47;61.99
75685;HTU21D;64298;46.050;38.164;2023-03-31T08:00:13;9.75;61.63
75685;HTU21D;64298;46.050;38.164;2023-03-31T08:02:40;9.66;60.89
75685;HTU21D;64298;46.050;38.164;2023-03-31T08:05:08;9.60;61.96
75685;HTU21D;64298;46.050;38.164;2023-03-31T08:07:37;9.35;62.60
75685;HTU21D;64298;46.050;38.164;2023-03-31T08:10:06;9.04;63.84
75685;HTU21D;64298;46.050;38.164;2023-03-31T08:12:32;8.79;64.69
75685;HTU21D;64298;46.050;38.164;2023-03-31T08:14:58;8.65;64.72
75685;HTU21D;64298;46.050;38.164;2023-03-31T08:17:24;8.72;65.91
75685;HTU21D;64298;46.050;38.164;2023-03-31T08:19:50;8.91;66.12
75685;HTU21D;64298;46.050;38.164;2023-03-31T08:22:17;9.34;66.00
75685;HTU21D;64298;46.050;38.164;2023-03-31T08:24:43;9.60;64.39
75685;HTU21D;64298;46.050;38.164;2023-03-31T08:27:08;9.63;62.58
75685;HTU21D;64298;46.050;38.164;2023-03-31T08:29:35;9.60;62.93
75685;HTU21D;64298;46.050;38.164;2023-03-31T08:32:01;9.76;63.08
75685;HTU21D;64298;46.050;38.164;2023-03-31T08:34:26;10.05;62.32
75685;HTU21D;64298;46.050;38.164;2023-03-31T08:36:52;10.18;62.79
75685;HTU21D;64298;46.050;38.164;2023-03-31T08:39:19;10.06;61.23
75685;HTU21D;64298;46.050;38.164;2023-03-31T08:44:41;9.97;58.93
75685;HTU21D;64298;46.050;38.164;2023-03-31T08:47:14;9.96;60.92
75685;HTU21D;64298;46.050;38.164;2023-03-31T08:49:49;9.99;60.50
75685;HTU21D;64298;46.050;38.164;2023-03-31T08:52:32;10.00;60.92
75685;HTU21D;64298;46.050;38.164;2023-03-31T08:55:03;9.96;58.85
75685;HTU21D;64298;46.050;38.164;2023-03-31T09:01:03;9.99;58.53
75685;HTU21D;64298;46.050;38.164;2023-03-31T09:03:36;10.09;59.17
75685;HTU21D;64298;46.050;38.164;2023-03-31T09:06:08;10.24;59.89
75685;HTU21D;64298;46.050;38.164;2023-03-31T09:08:38;10.29;59.58
75685;HTU21D;64298;46.050;38.164;2023-03-31T09:16:34;10.36;55.97
75685;HTU21D;64298;46.050;38.164;2023-03-31T09:19:07;10.43;56.13
75685;HTU21D;64298;46.050;38.164;2023-03-31T09:21:39;10.51;55.34
75685;HTU21D;64298;46.050;38.164;2023-03-31T09:26:42;10.70;55.02
75685;HTU21D;64298;46.050;38.164;2023-03-31T09:29:23;10.81;55.47
75685;HTU21D;64298;46.050;38.164;2023-03-31T09:31:58;10.82;53.89
75685;HTU21D;64298;46.050;38.164;2023-03-31T09:34:31;10.84;53.95
75685;HTU21D;64298;46.050;38.164;2023-03-31T09:36:58;10.93;54.10
75685;HTU21D;64298;46.050;38.164;2023-03-31T09:39:24;11.01;52.53
75685;HTU21D;64298;46.050;38.164;2023-03-31T09:41:51;11.15;53.44
75685;HTU21D;64298;46.050;38.164;2023-03-31T09:46:44;11.31;53.27
75685;HTU21D;64298;46.050;38.164;2023-03-31T09:49:13;11.28;54.59
75685;HTU21D;64298;46.050;38.164;2023-03-31T09:51:43;11.28;54.09
75685;HTU21D;64298;46.050;38.164;2023-03-31T09:54:26;11.36;53.64
75685;HTU21D;64298;46.050;38.164;2023-03-31T09:56:55;11.33;53.33
75685;HTU21D;64298;46.050;38.164;2023-03-31T09:59:29;11.30;51.75
75685;HTU21D;64298;46.050;38.164;2023-03-31T10:01:56;11.27;52.03
75685;HTU21D;64298;46.050;38.164;2023-03-31T10:04:26;11.20;51.03
75685;HTU21D;64298;46.050;38.164;2023-03-31T10:06:53;11.27;51.38
75685;HTU21D;64298;46.050;38.164;2023-03-31T10:09:21;11.36;50.54
75685;HTU21D;64298;46.050;38.164;2023-03-31T10:11:55;11.37;50.88
75685;HTU21D;64298;46.050;38.164;2023-03-31T10:14:32;11.41;49.79
75685;HTU21D;64298;46.050;38.164;2023-03-31T10:17:02;11.36;51.69
75685;HTU21D;64298;46.050;38.164;2023-03-31T10:19:36;11.41;50.66
75685;HTU21D;64298;46.050;38.164;2023-03-31T10:22:14;11.53;50.59
75685;HTU21D;64298;46.050;38.164;2023-03-31T10:24:44;11.63;48.89
75685;HTU21D;64298;46.050;38.164;2023-03-31T10:27:23;11.70;46.99
75685;HTU21D;64298;46.050;38.164;2023-03-31T10:29:52;11.79;47.81
75685;HTU21D;64298;46.050;38.164;2023-03-31T10:34:45;11.85;46.64
75685;HTU21D;64298;46.050;38.164;2023-03-31T10:37:16;11.86;45.07
75685;HTU21D;64298;46.050;38.164;2023-03-31T10:39:43;11.87;46.04
75685;HTU21D;64298;46.050;38.164;2023-03-31T10:42:18;12.08;46.89
75685;HTU21D;64298;46.050;38.164;2023-03-31T10:44:46;12.20;44.83
75685;HTU21D;64298;46.050;38.164;2023-03-31T10:49:40;12.51;44.59
75685;HTU21D;64298;46.050;38.164;2023-03-31T10:55:01;12.58;43.15
75685;HTU21D;64298;46.050;38.164;2023-03-31T11:03:07;12.33;42.69
75685;HTU21D;64298;46.050;38.164;2023-03-31T11:06:02;12.35;43.51
75685;HTU21D;64298;46.050;38.164;2023-03-31T11:11:08;12.46;44.49
75685;HTU21D;64298;46.050;38.164;2023-03-31T11:18:53;12.92;42.64
75685;HTU21D;64298;46.050;38.164;2023-03-31T11:38:46;13.26;38.43
75685;HTU21D;64298;46.050;38.164;2023-03-31T11:41:27;13.17;40.80
75685;HTU21D;64298;46.050;38.164;2023-03-31T11:44:16;13.24;41.29
75685;HTU21D;64298;46.050;38.164;2023-03-31T11:46:52;13.38;43.10
75685;HTU21D;64298;46.050;38.164;2023-03-31T11:51:54;13.45;42.13
75685;HTU21D;64298;46.050;38.164;2023-03-31T11:56:57;13.25;42.19
75685;HTU21D;64298;46.050;38.164;2023-03-31T11:59:25;13.09;42.41
75685;HTU21D;64298;46.050;38.164;2023-03-31T12:02:16;13.15;44.22
75685;HTU21D;64298;46.050;38.164;2023-03-31T12:04:52;13.03;42.81
75685;HTU21D;64298;46.050;38.164;2023-03-31T12:07:35;12.85;42.62
75685;HTU21D;64298;46.050;38.164;2023-03-31T12:16:03;12.52;43.48
75685;HTU21D;64298;46.050;38.164;2023-03-31T12:18:35;12.60;42.39
75685;HTU21D;64298;46.050;38.164;2023-03-31T12:21:03;12.74;41.46
75685;HTU21D;64298;46.050;38.164;2023-03-31T12:23:37;12.86;39.94
75685;HTU21D;64298;46.050;38.164;2023-03-31T12:28:40;12.94;41.52
75685;HTU21D;64298;46.050;38.164;2023-03-31T12:31:11;12.90;41.10
75685;HTU21D;64298;46.050;38.164;2023-03-31T12:33:43;12.80;40.51
75685;HTU21D;64298;46.050;38.164;2023-03-31T12:44:44;12.50;41.70
75685;HTU21D;64298;46.050;38.164;2023-03-31T12:53:14;12.81;46.78
75685;HTU21D;64298;46.050;38.164;2023-03-31T12:55:48;12.64;47.88
75685;HTU21D;64298;46.050;38.164;2023-03-31T13:03:39;12.28;49.69
75685;HTU21D;64298;46.050;38.164;2023-03-31T13:06:09;12.17;50.62
75685;HTU21D;64298;46.050;38.164;2023-03-31T13:09:06;12.27;50.77
75685;HTU21D;64298;46.050;38.164;2023-03-31T13:11:52;12.32;50.54
75685;HTU21D;64298;46.050;38.164;2023-03-31T13:14:21;12.33;50.57
75685;HTU21D;64298;46.050;38.164;2023-03-31T13:16:48;12.40;50.30
75685;HTU21D;64298;46.050;38.164;2023-03-31T13:19:47;12.50;50.37
75685;HTU21D;64298;46.050;38.164;2023-03-31T13:28:17;12.21;50.47
75685;HTU21D;64298;46.050;38.164;2023-03-31T13:30:45;12.17;50.27
75685;HTU21D;64298;46.050;38.164;2023-03-31T13:33:27;12.14;50.41
75685;HTU21D;64298;46.050;38.164;2023-03-31T13:36:22;12.17;50.79
75685;HTU21D;64298;46.050;38.164;2023-03-31T13:42:12;12.19;50.03
75685;HTU21D;64298;46.050;38.164;2023-03-31T13:47:31;12.19;50.91
75685;HTU21D;64298;46.050;38.164;2023-03-31T13:52:43;12.27;51.07
75685;HTU21D;64298;46.050;38.164;2023-03-31T14:06:44;12.45;49.67
75685;HTU21D;64298;46.050;38.164;2023-03-31T14:09:33;12.40;49.23
75685;HTU21D;64298;46.050;38.164;2023-03-31T14:12:35;12.26;49.99
75685;HTU21D;64298;46.050;38.164;2023-03-31T14:15:04;12.17;50.30
75685;HTU21D;64298;46.050;38.164;2023-03-31T14:17:34;12.12;50.62
75685;HTU21D;64298;46.050;38.164;2023-03-31T14:23:10;11.96;50.47
75685;HTU21D;64298;46.050;38.164;2023-03-31T14:31:39;11.70;50.12
75685;HTU21D;64298;46.050;38.164;2023-03-31T14:36:59;11.43;50.69
75685;HTU21D;64298;46.050;38.164;2023-03-31T14:39:29;11.43;51.26
75685;HTU21D;64298;46.050;38.164;2023-03-31T14:42:03;11.40;51.30
75685;HTU21D;64298;46.050;38.164;2023-03-31T14:44:33;11.36;51.31
75685;HTU21D;64298;46.050;38.164;2023-03-31T14:46:59;11.31;51.43
75685;HTU21D;64298;46.050;38.164;2023-03-31T14:49:32;11.24;51.52
75685;HTU21D;64298;46.050;38.164;2023-03-31T14:52:20;11.18;51.93
75685;HTU21D;64298;46.050;38.164;2023-03-31T14:54:48;11.12;52.07
75685;HTU21D;64298;46.050;38.164;2023-03-31T14:57:19;11.05;51.91
75685;HTU21D;64298;46.050;38.164;2023-03-31T14:59:49;11.02;52.09
75685;HTU21D;64298;46.050;38.164;2023-03-31T15:02:33;11.00;52.51
75685;HTU21D;64298;46.050;38.164;2023-03-31T15:05:26;10.99;52.71
75685;HTU21D;64298;46.050;38.164;2023-03-31T15:08:04;10.94;52.56
75685;HTU21D;64298;46.050;38.164;2023-03-31T15:10:36;10.87;52.44
75685;HTU21D;64298;46.050;38.164;2023-03-31T15:13:11;10.85;53.03
75685;HTU21D;64298;46.050;38.164;2023-03-31T15:15:40;10.82;53.13
75685;HTU21D;64298;46.050;38.164;2023-03-31T15:18:08;10.80;53.29
75685;HTU21D;64298;46.050;38.164;2023-03-31T15:20:37;10.78;53.53
75685;HTU21D;64298;46.050;38.164;2023-03-31T15:23:17;10.78;53.72
75685;HTU21D;64298;46.050;38.164;2023-03-31T15:25:46;10.73;53.83
75685;HTU21D;64298;46.050;38.164;2023-03-31T15:28:14;10.69;54.00
75685;HTU21D;64298;46.050;38.164;2023-03-31T15:30:41;10.66;54.05
75685;HTU21D;64298;46.050;38.164;2023-03-31T15:33:07;10.62;54.28
75685;HTU21D;64298;46.050;38.164;2023-03-31T15:35:41;10.63;54.55
75685;HTU21D;64298;46.050;38.164;2023-03-31T15:38:10;10.60;54.68
75685;HTU21D;64298;46.050;38.164;2023-03-31T15:40:41;10.56;54.85
75685;HTU21D;64298;46.050;38.164;2023-03-31T15:43:15;10.50;55.42
75685;HTU21D;64298;46.050;38.164;2023-03-31T15:46:00;10.42;55.63
75685;HTU21D;64298;46.050;38.164;2023-03-31T15:48:33;10.37;55.91
75685;HTU21D;64298;46.050;38.164;2023-03-31T15:51:17;10.31;56.45
75685;HTU21D;64298;46.050;38.164;2023-03-31T15:53:46;10.25;56.80
75685;HTU21D;64298;46.050;38.164;2023-03-31T15:56:40;10.19;57.16
75685;HTU21D;64298;46.050;38.164;2023-03-31T15:59:29;10.14;57.48
75685;HTU21D;64298;46.050;38.164;2023-03-31T16:01:57;10.09;57.74
75685;HTU21D;64298;46.050;38.164;2023-03-31T16:04:29;10.01;58.02
75685;HTU21D;64298;46.050;38.164;2023-03-31T16:07:05;9.98;58.35
75685;HTU21D;64298;46.050;38.164;2023-03-31T16:09:54;9.94;58.74
75685;HTU21D;64298;46.050;38.164;2023-03-31T16:12:32;9.89;59.06
75685;HTU21D;64298;46.050;38.164;2023-03-31T16:17:50;9.75;59.28
75685;HTU21D;64298;46.050;38.164;2023-03-31T16:20:20;9.71;59.42
75685;HTU21D;64298;46.050;38.164;2023-03-31T16:22:51;9.66;59.77
75685;HTU21D;64298;46.050;38.164;2023-03-31T16:25:21;9.63;59.96
75685;HTU21D;64298;46.050;38.164;2023-03-31T16:27:50;9.59;60.36
75685;HTU21D;64298;46.050;38.164;2023-03-31T16:30:20;9.52;60.51
75685;HTU21D;64298;46.050;38.164;2023-03-31T16:33:03;9.50;60.44
75685;HTU21D;64298;46.050;38.164;2023-03-31T16:35:31;9.49;60.53
75685;HTU21D;64298;46.050;38.164;2023-03-31T16:37:57;9.46;60.61
75685;HTU21D;64298;46.050;38.164;2023-03-31T16:40:23;9.42;60.86
75685;HTU21D;64298;46.050;38.164;2023-03-31T16:43:09;9.39;61.09
75685;HTU21D;64298;46.050;38.164;2023-03-31T16:45:35;9.37;61.28
75685;HTU21D;64298;46.050;38.164;2023-03-31T16:48:01;9.32;61.60
75685;HTU21D;64298;46.050;38.164;2023-03-31T16:50:28;9.26;61.73
75685;HTU21D;64298;46.050;38.164;2023-03-31T16:52:54;9.25;61.83
75685;HTU21D;64298;46.050;38.164;2023-03-31T16:55:20;9.25;61.85
75685;HTU21D;64298;46.050;38.164;2023-03-31T16:57:46;9.25;61.88
75685;HTU21D;64298;46.050;38.164;2023-03-31T17:00:13;9.24;61.84
75685;HTU21D;64298;46.050;38.164;2023-03-31T17:02:39;9.22;61.83
75685;HTU21D;64298;46.050;38.164;2023-03-31T17:05:24;9.16;61.63
75685;HTU21D;64298;46.050;38.164;2023-03-31T17:07:50;9.10;61.47
75685;HTU21D;64298;46.050;38.164;2023-03-31T17:10:17;9.04;61.22
75685;HTU21D;64298;46.050;38.164;2023-03-31T17:12:43;9.00;61.23
75685;HTU21D;64298;46.050;38.164;2023-03-31T17:15:09;8.96;61.19
75685;HTU21D;64298;46.050;38.164;2023-03-31T17:17:35;8.91;61.08
75685;HTU21D;64298;46.050;38.164;2023-03-31T17:20:05;8.85;61.03
75685;HTU21D;64298;46.050;38.164;2023-03-31T17:22:50;8.81;61.09
75685;HTU21D;64298;46.050;38.164;2023-03-31T17:25:16;8.77;61.31
75685;HTU21D;64298;46.050;38.164;2023-03-31T17:27:43;8.74;61.40
75685;HTU21D;64298;46.050;38.164;2023-03-31T17:30:10;8.70;61.43
75685;HTU21D;64298;46.050;38.164;2023-03-31T17:32:37;8.68;61.50
75685;HTU21D;64298;46.050;38.164;2023-03-31T17:35:03;8.66;61.58
75685;HTU21D;64298;46.050;38.164;2023-03-31T17:37:29;8.65;61.65
75685;HTU21D;64298;46.050;38.164;2023-03-31T17:40:13;8.62;61.80
75685;HTU21D;64298;46.050;38.164;2023-03-31T17:42:39;8.58;62.01
75685;HTU21D;64298;46.050;38.164;2023-03-31T17:45:06;8.56;62.03
75685;HTU21D;64298;46.050;38.164;2023-03-31T17:47:33;8.57;61.98
75685;HTU21D;64298;46.050;38.164;2023-03-31T17:49:59;8.52;62.08
75685;HTU21D;64298;46.050;38.164;2023-03-31T17:52:25;8.49;62.18
75685;HTU21D;64298;46.050;38.164;2023-03-31T17:54:52;8.47;62.26
75685;HTU21D;64298;46.050;38.164;2023-03-31T17:57:18;8.44;62.47
75685;HTU21D;64298;46.050;38.164;2023-03-31T17:59:44;8.41;62.63
75685;HTU21D;64298;46.050;38.164;2023-03-31T18:02:11;8.39;62.77
75685;HTU21D;64298;46.050;38.164;2023-03-31T18:04:37;8.36;62.95
75685;HTU21D;64298;46.050;38.164;2023-03-31T18:07:03;8.34;63.27
75685;HTU21D;64298;46.050;38.164;2023-03-31T18:09:30;8.29;63.56
75685;HTU21D;64298;46.050;38.164;2023-03-31T18:11:56;8.26;63.73
75685;HTU21D;64298;46.050;38.164;2023-03-31T18:14:23;8.22;63.73
75685;HTU21D;64298;46.050;38.164;2023-03-31T18:16:49;8.21;63.95
75685;HTU21D;64298;46.050;38.164;2023-03-31T18:19:15;8.19;64.07
75685;HTU21D;64298;46.050;38.164;2023-03-31T18:21:41;8.16;64.10
75685;HTU21D;64298;46.050;38.164;2023-03-31T18:24:07;8.12;64.23
75685;HTU21D;64298;46.050;38.164;2023-03-31T18:26:33;8.07;64.40
75685;HTU21D;64298;46.050;38.164;2023-03-31T18:29:00;8.03;64.56
75685;HTU21D;64298;46.050;38.164;2023-03-31T18:31:26;8.00;64.64
75685;HTU21D;64298;46.050;38.164;2023-03-31T18:33:52;7.98;64.66
75685;HTU21D;64298;46.050;38.164;2023-03-31T18:36:21;7.96;64.76